Terminal Aerodrome Forecast
Issued by NWS

Home | Current Version | Previous Version | Text Only | Print | Product List | Glossary On
Versions: 1 2 3 4 5 6 7 8 9 10 11 12 13 14 15 16 17 18 19 20 21 22 23 24 25 26 27 28 29 30 31 32 33 34 35 36 37 38 39 40 41 42 43 44 45 46 47 48 49 50
000
FTUS43 KGRB 180540
TAFATW
TAF
KATW 180540Z 1806/1906 29011KT P6SM SCT015 BKN027
      TEMPO 1806/1808 BKN015
     FM181500 29014G22KT P6SM SCT024 BKN035
     FM181900 29012G20KT P6SM SCT035
     FM182300 31006KT P6SM BKN040=

USA.gov is the U.S. government's official web portal to all federal, state and local government web resources and services.